CSAV Rio Maipo — A8GH5 — position and weather

sailwx.info

Track history (hours):
 
Tides and Currents Weather Stations Pressure Air Temp Water Temp Dewpoint Dewpoint Depression Visibility Wind Speed Wind Dir Waves Ship Positions

CSAV Rio Maipo

Last reported at 2015-Mar-27 14:15 UTC. Time now 2015-Apr-02 01:29 UTC.
Position N 01°17' E 104°19'.

Length 210.9 m; beam 32.3 m; draft 12 m.

Type: Ship (hazmat cat A). MMSI: 636091292.

Date/timePositionNaut miles runAvg speedWind from/ knotsBaromVisibWave heightAir tempDewpointWater temp
2015-Mar-27 14:15N 01°17' E 104°19'1115.3
2015-Mar-27 13:32N 01°16' E 104°08'1515.2
2015-Mar-27 12:33N 01°12' E 103°53'5 0.3
2015-Mar-26 22:11N 01°13' E 103°49'5 7.5
2015-Mar-26 21:29N 01°14' E 103°54'7 8.0
2015-Mar-26 20:34N 01°16' E 104°01'6 5.3
2015-Mar-26 19:24N 01°22' E 104°02'8 9.3
2015-Mar-26 18:33N 01°25' E 103°55'3 0.2
2015-Mar-26 04:03N 01°24' E 103°57'5 9.5
2015-Mar-26 03:33N 01°22' E 104°02'1211.3
2015-Mar-26 02:29N 01°17' E 104°13'  
2015-Mar-22 14:32N 22°00' E 114°21'1411.7
2015-Mar-22 13:20N 22°11' E 114°11'810.9
2015-Mar-22 12:34N 22°18' E 114°06'10 8.6
2015-Mar-22 11:22N 22°21' E 113°55'6 7.1
2015-Mar-22 10:33N 22°27' E 113°53'0 0.2
2015-Mar-22 09:34N 22°27' E 113°53'0 0.0
2015-Mar-22 08:28N 22°27' E 113°53'0 0.0
2015-Mar-22 07:28N 22°27' E 113°53'0 0.0
2015-Mar-22 06:28N 22°27' E 113°53'0 0.0
2015-Mar-22 05:22N 22°27' E 113°53'1 0.7
2015-Mar-22 04:33N 22°26' E 113°53'10 7.4
2015-Mar-22 03:13N 22°21' E 114°02'6 9.1
2015-Mar-22 02:33N 22°17' E 114°06'1010.2
2015-Mar-22 01:33N 22°09' E 114°14'1111.0
2015-Mar-22 00:33N 22°09' E 114°26'21313.1
2015-Mar-21 08:22N 23°38' E 117°55'1413.9
2015-Mar-21 07:22N 23°50' E 118°03'1315.7
2015-Mar-21 06:33N 23°59' E 118°13'1414.4
2015-Mar-21 05:33N 24°13' E 118°17'1414.1
2015-Mar-21 04:33N 24°24' E 118°06'7 7.2
2015-Mar-21 03:33N 24°31' E 118°05'0 0.1
2015-Mar-21 02:28N 24°31' E 118°05'0 0.0
2015-Mar-21 01:31N 24°31' E 118°05'0 0.0
2015-Mar-21 00:25N 24°31' E 118°05'0 0.0
2015-Mar-20 23:28N 24°31' E 118°05'0 0.0
2015-Mar-20 22:31N 24°31' E 118°05'0 0.0
2015-Mar-20 21:28N 24°31' E 118°05'4 4.1
2015-Mar-20 20:33N 24°28' E 118°03'1211.8
2015-Mar-20 19:33N 24°19' E 118°12'1414.4
2015-Mar-20 18:33N 24°10' E 118°25'3 2.5
2015-Mar-20 17:31N 24°13' E 118°25'1212.2
2015-Mar-20 16:33N 24°19' E 118°36'1514.3
2015-Mar-20 15:30N 24°27' E 118°50'1414.7
2015-Mar-20 14:32N 24°36' E 119°02'1615.1
2015-Mar-20 13:29N 24°44' E 119°17'34614.9
2015-Mar-19 14:12N 29°36' E 122°46'8512.7
2015-Mar-19 07:33N 30°60' E 122°32'9 9.4
2015-Mar-19 06:33N 31°06' E 122°23'1414.0
2015-Mar-19 05:33N 31°12' E 122°09'1514.8
2015-Mar-19 04:34N 31°16' E 121°52'1111.3
2015-Mar-19 03:34N 31°20' E 121°40'0 0.1
2015-Mar-19 02:32N 31°20' E 121°40'0 0.0
2015-Mar-19 01:32N 31°20' E 121°40'0 0.0
2015-Mar-19 00:14N 31°20' E 121°40'0 0.0
2015-Mar-18 23:26N 31°20' E 121°40'0 0.0
2015-Mar-18 22:32N 31°20' E 121°40'0 0.0
2015-Mar-18 21:32N 31°20' E 121°40'0 0.0
2015-Mar-18 20:29N 31°20' E 121°40'0 0.0
2015-Mar-18 19:32N 31°20' E 121°40'0 0.0
2015-Mar-18 18:14N 31°20' E 121°40'0 0.0
2015-Mar-18 17:20N 31°20' E 121°40'0 0.0
2015-Mar-18 16:32N 31°20' E 121°40'0 0.0
2015-Mar-18 15:32N 31°20' E 121°40'0 0.0
2015-Mar-18 14:32N 31°20' E 121°40'0 0.4
2015-Mar-18 13:33N 31°20' E 121°40'3 2.9
2015-Mar-18 12:33N 31°19' E 121°43'1313.1
2015-Mar-18 11:33N 31°15' E 121°57'1414.3
2015-Mar-18 10:33N 31°09' E 122°13'1312.9
2015-Mar-18 09:33N 31°07' E 122°28'  
Track history (hours):
 
Tides and Currents Weather Stations Pressure Air Temp Water Temp Dewpoint Dewpoint Depression Visibility Wind Speed Wind Dir Waves Ship Positions

CSAV Rio Maipo

Last reported at 2015-Mar-27 14:15 UTC. Time now 2015-Apr-02 01:29 UTC.
Position N 01°17' E 104°19'.

Length 210.9 m; beam 32.3 m; draft 12 m.

Type: Ship (hazmat cat A). MMSI: 636091292.

Date/timePositionNaut miles runAvg speedWind from/ knotsBaromVisibWave heightAir tempDewpointWater temp
2015-Mar-27 14:15N 01°17' E 104°19'1115.3
2015-Mar-27 13:32N 01°16' E 104°08'1515.2
2015-Mar-27 12:33N 01°12' E 103°53'5 0.3
2015-Mar-26 22:11N 01°13' E 103°49'5 7.5
2015-Mar-26 21:29N 01°14' E 103°54'7 8.0
2015-Mar-26 20:34N 01°16' E 104°01'6 5.3
2015-Mar-26 19:24N 01°22' E 104°02'8 9.3
2015-Mar-26 18:33N 01°25' E 103°55'3 0.2
2015-Mar-26 04:03N 01°24' E 103°57'5 9.5
2015-Mar-26 03:33N 01°22' E 104°02'1211.3
2015-Mar-26 02:29N 01°17' E 104°13'  
2015-Mar-22 14:32N 22°00' E 114°21'1411.7
2015-Mar-22 13:20N 22°11' E 114°11'810.9
2015-Mar-22 12:34N 22°18' E 114°06'10 8.6
2015-Mar-22 11:22N 22°21' E 113°55'6 7.1
2015-Mar-22 10:33N 22°27' E 113°53'0 0.2
2015-Mar-22 09:34N 22°27' E 113°53'0 0.0
2015-Mar-22 08:28N 22°27' E 113°53'0 0.0
2015-Mar-22 07:28N 22°27' E 113°53'0 0.0
2015-Mar-22 06:28N 22°27' E 113°53'0 0.0
2015-Mar-22 05:22N 22°27' E 113°53'1 0.7
2015-Mar-22 04:33N 22°26' E 113°53'10 7.4
2015-Mar-22 03:13N 22°21' E 114°02'6 9.1
2015-Mar-22 02:33N 22°17' E 114°06'1010.2
2015-Mar-22 01:33N 22°09' E 114°14'1111.0
2015-Mar-22 00:33N 22°09' E 114°26'21313.1
2015-Mar-21 08:22N 23°38' E 117°55'1413.9
2015-Mar-21 07:22N 23°50' E 118°03'1315.7
2015-Mar-21 06:33N 23°59' E 118°13'1414.4
2015-Mar-21 05:33N 24°13' E 118°17'1414.1
2015-Mar-21 04:33N 24°24' E 118°06'7 7.2
2015-Mar-21 03:33N 24°31' E 118°05'0 0.1
2015-Mar-21 02:28N 24°31' E 118°05'0 0.0
2015-Mar-21 01:31N 24°31' E 118°05'0 0.0
2015-Mar-21 00:25N 24°31' E 118°05'0 0.0
2015-Mar-20 23:28N 24°31' E 118°05'0 0.0
2015-Mar-20 22:31N 24°31' E 118°05'0 0.0
2015-Mar-20 21:28N 24°31' E 118°05'4 4.1
2015-Mar-20 20:33N 24°28' E 118°03'1211.8
2015-Mar-20 19:33N 24°19' E 118°12'1414.4
2015-Mar-20 18:33N 24°10' E 118°25'3 2.5
2015-Mar-20 17:31N 24°13' E 118°25'1212.2
2015-Mar-20 16:33N 24°19' E 118°36'1514.3
2015-Mar-20 15:30N 24°27' E 118°50'1414.7
2015-Mar-20 14:32N 24°36' E 119°02'1615.1
2015-Mar-20 13:29N 24°44' E 119°17'34614.9
2015-Mar-19 14:12N 29°36' E 122°46'8512.7
2015-Mar-19 07:33N 30°60' E 122°32'9 9.4
2015-Mar-19 06:33N 31°06' E 122°23'1414.0
2015-Mar-19 05:33N 31°12' E 122°09'1514.8
2015-Mar-19 04:34N 31°16' E 121°52'1111.3
2015-Mar-19 03:34N 31°20' E 121°40'0 0.1
2015-Mar-19 02:32N 31°20' E 121°40'0 0.0
2015-Mar-19 01:32N 31°20' E 121°40'0 0.0
2015-Mar-19 00:14N 31°20' E 121°40'0 0.0
2015-Mar-18 23:26N 31°20' E 121°40'0 0.0
2015-Mar-18 22:32N 31°20' E 121°40'0 0.0
2015-Mar-18 21:32N 31°20' E 121°40'0 0.0
2015-Mar-18 20:29N 31°20' E 121°40'0 0.0
2015-Mar-18 19:32N 31°20' E 121°40'0 0.0
2015-Mar-18 18:14N 31°20' E 121°40'0 0.0
2015-Mar-18 17:20N 31°20' E 121°40'0 0.0
2015-Mar-18 16:32N 31°20' E 121°40'0 0.0
2015-Mar-18 15:32N 31°20' E 121°40'0 0.0
2015-Mar-18 14:32N 31°20' E 121°40'0 0.4
2015-Mar-18 13:33N 31°20' E 121°40'3 2.9
2015-Mar-18 12:33N 31°19' E 121°43'1313.1
2015-Mar-18 11:33N 31°15' E 121°57'1414.3
2015-Mar-18 10:33N 31°09' E 122°13'1312.9
2015-Mar-18 09:33N 31°07' E 122°28'  

Dump ship's entire track history